^^
Grace C. Lehan Memorial Weather Station Historical Data
Daily Summary for January 10, 2022 Units:  Both    English   Metric
Daily Weekly Monthly Yearly
  High: Low: Average:
Temperature: 78.7 °F /  25.9 °C 77.3 °F /  25.2 °C 77.9 °F /  25.5 °C
Dew Point: 66 °F /  18.9 °C 65.3 °F /  18.5 °C 65.7 °F /  18.7 °C
Humidity: 68% 64% 66%
Wind Speed: 2.3mph /  3.7km/h - 0.4mph /  0.6km/h
Wind Gust: 7mph /  11.3km/h - -
Wind- - NW
Pressure: 29.95 in /  1014.1 hPa 29.93 in /  1013.4 hPa -
Precipitation: 0.00 in /  0 mm    
 
 
Tabular Data for January 10, 2022
Time Temperature Dew Point Pressure Wind Wind Speed Wind Gust Humidity Rainfall Rate (Hourly) solar
00:09 78.7 °F /  25.9 °C 65.5 °F /  18.6 °C 29.94in /  1013.8hPa Calm     64% 0.00in /  0mm 0 W/m2
00:14 78.6 °F /  25.9 °C 65.4 °F /  18.6 °C 29.94in /  1013.8hPa NW 0.1mph /  0.2km/h 3mph /  4.8km/h 64% 0.00in /  0mm 0 W/m2
00:19 78.5 °F /  25.8 °C 65.4 °F /  18.6 °C 29.93in /  1013.4hPa NW 0.8mph /  1.3km/h 6mph /  9.7km/h 64% 0.00in /  0mm 0 W/m2
00:24 78.5 °F /  25.8 °C 65.3 °F /  18.5 °C 29.93in /  1013.4hPa NW 0.5mph /  0.8km/h 6mph /  9.7km/h 64% 0.00in /  0mm 0 W/m2
00:29 78.4 °F /  25.8 °C 65.4 °F /  18.6 °C 29.93in /  1013.4hPa NW 0.6mph /  1km/h 6mph /  9.7km/h 64.4% 0.00in /  0mm 0 W/m2
00:34 78.3 °F /  25.7 °C 65.6 °F /  18.7 °C 29.94in /  1013.8hPa NW 0.6mph /  1km/h 6mph /  9.7km/h 65% 0.00in /  0mm 0 W/m2
00:39 78.2 °F /  25.7 °C 65.5 °F /  18.6 °C 29.94in /  1013.8hPa Calm   5mph /  8km/h 65% 0.00in /  0mm 0 W/m2
00:44 78.2 °F /  25.7 °C 65.4 °F /  18.6 °C 29.94in /  1013.8hPa NW 0.6mph /  1km/h 6mph /  9.7km/h 65% 0.00in /  0mm 0 W/m2
00:49 78.1 °F /  25.6 °C 65.6 °F /  18.7 °C 29.94in /  1013.8hPa Calm   6mph /  9.7km/h 65.5% 0.00in /  0mm 0 W/m2
00:54 78 °F /  25.6 °C 65.8 °F /  18.8 °C 29.94in /  1013.8hPa NW 0.4mph /  0.6km/h 6mph /  9.7km/h 66% 0.00in /  0mm 0 W/m2
00:59 78 °F /  25.6 °C 65.6 °F /  18.7 °C 29.94in /  1013.8hPa NW 0.2mph /  0.3km/h 6mph /  9.7km/h 65.8% 0.00in /  0mm 0 W/m2
01:04 77.9 °F /  25.5 °C 65.7 °F /  18.7 °C 29.94in /  1013.8hPa Calm   6mph /  9.7km/h 66.1% 0.00in /  0mm 0 W/m2
01:09 77.9 °F /  25.5 °C 65.9 °F /  18.8 °C 29.94in /  1013.8hPa Calm   2mph /  3.2km/h 66.7% 0.00in /  0mm 0 W/m2
01:14 77.9 °F /  25.5 °C 65.8 °F /  18.8 °C 29.94in /  1013.8hPa Calm   2mph /  3.2km/h 66.5% 0.00in /  0mm 0 W/m2
01:19 77.8 °F /  25.4 °C 65.7 °F /  18.7 °C 29.94in /  1013.8hPa North 0.3mph /  0.5km/h 3mph /  4.8km/h 66.3% 0.00in /  0mm 0 W/m2
01:24 77.8 °F /  25.4 °C 65.6 °F /  18.7 °C 29.95in /  1014.1hPa Calm   3mph /  4.8km/h 66.2% 0.00in /  0mm 0 W/m2
01:29 77.7 °F /  25.4 °C 65.9 °F /  18.8 °C 29.95in /  1014.1hPa Calm   3mph /  4.8km/h 67% 0.00in /  0mm 0 W/m2
01:34 77.6 °F /  25.3 °C 65.8 °F /  18.8 °C 29.94in /  1013.8hPa NNE 0.1mph /  0.2km/h 3mph /  4.8km/h 67% 0.00in /  0mm 0 W/m2
01:39 77.6 °F /  25.3 °C 65.8 °F /  18.8 °C 29.94in /  1013.8hPa North 0.7mph /  1.1km/h 4mph /  6.4km/h 67% 0.00in /  0mm 0 W/m2
01:44 77.5 °F /  25.3 °C 66 °F /  18.9 °C 29.94in /  1013.8hPa NNW 0.3mph /  0.5km/h 4mph /  6.4km/h 67.7% 0.00in /  0mm 0 W/m2
01:49 77.5 °F /  25.3 °C 65.7 °F /  18.7 °C 29.94in /  1013.8hPa NW 2.3mph /  3.7km/h 7mph /  11.3km/h 67.2% 0.00in /  0mm 0 W/m2
01:54 77.4 °F /  25.2 °C 66 °F /  18.9 °C 29.94in /  1013.8hPa NNW 0.5mph /  0.8km/h 7mph /  11.3km/h 68% 0.00in /  0mm 0 W/m2
01:59 77.3 °F /  25.2 °C 65.9 °F /  18.8 °C 29.95in /  1014.1hPa NNW 0.3mph /  0.5km/h 7mph /  11.3km/h 68% 0.00in /  0mm 0 W/m2
02:03 77.3 °F /  25.2 °C 65.9 °F /  18.8 °C 29.95in /  1014.1hPa NW 1.4mph /  2.3km/h 7mph /  11.3km/h 68% 0.00in /  0mm 0 W/m2
Hartford County Weather
Compliments of Weather Underground - 2 mb